Time;durP1;ratioP1;P1;durP2;ratioP2;P2;SDS_P1;SDS_P2;PMS_P1;PMS_P2;Temp;Humidity;BMP_temperature;BMP_pressure;BME280_temperature;BME280_humidity;BME280_pressure;Samples;Min_cycle;Max_cycle;Signal;HPM_P1;HPM_P2
2022/06/14 00:00:54;;;;;;;10.97;2.30;;;10.20;99.90;;;;;;5035078;28;21158;-80
2022/06/14 00:03:22;;;;;;;5.67;1.80;;;10.20;99.90;;;;;;5057361;28;20228;-81
2022/06/14 00:05:50;;;;;;;8.53;2.13;;;10.30;99.90;;;;;;5044120;28;20222;-81
2022/06/14 00:08:17;;;;;;;8.63;2.13;;;10.30;99.90;;;;;;5034333;28;20232;-79
2022/06/14 00:10:44;;;;;;;5.97;1.90;;;10.30;99.90;;;;;;5027035;28;20233;-80
2022/06/14 00:13:12;;;;;;;9.40;2.47;;;10.40;99.90;;;;;;5034070;28;20689;-79
2022/06/14 00:15:39;;;;;;;7.87;2.10;;;10.40;99.90;;;;;;5025028;28;20225;-80
2022/06/14 00:18:06;;;;;;;6.53;1.93;;;10.40;99.90;;;;;;5036775;28;20702;-80
2022/06/14 00:20:33;;;;;;;6.47;2.30;;;10.40;99.90;;;;;;5031246;28;20226;-80
2022/06/14 00:23:01;;;;;;;5.77;1.90;;;10.40;99.90;;;;;;5031292;28;20225;-80
2022/06/14 00:25:30;;;;;;;6.97;2.00;;;10.40;99.90;;;;;;5035247;28;20249;-80
2022/06/14 00:27:58;;;;;;;5.57;2.20;;;10.40;99.90;;;;;;5029981;28;20234;-80
2022/06/14 00:30:25;;;;;;;8.30;2.70;;;10.40;99.90;;;;;;5063324;28;20263;-80
2022/06/14 00:32:52;;;;;;;6.13;1.90;;;10.40;99.90;;;;;;5031850;28;20235;-80
2022/06/14 00:35:19;;;;;;;6.17;1.90;;;10.40;99.90;;;;;;5033585;28;20749;-80
2022/06/14 00:37:46;;;;;;;8.07;2.53;;;10.30;99.90;;;;;;5035562;28;20236;-80
2022/06/14 00:40:18;;;;;;;7.20;2.20;;;10.30;99.90;;;;;;5033588;28;20220;-80
2022/06/14 00:42:45;;;;;;;8.20;2.17;;;10.30;99.90;;;;;;5028647;28;20228;-80
2022/06/14 00:45:45;;;;;;;9.73;2.47;;;10.30;99.90;;;;;;5027106;28;20221;-81
2022/06/14 00:48:17;;;;;;;8.80;2.27;;;10.20;99.90;;;;;;5028589;28;20299;-80
2022/06/14 00:50:48;;;;;;;8.13;2.40;;;10.20;99.90;;;;;;5035283;28;20231;-81
2022/06/14 00:53:18;;;;;;;7.43;2.20;;;10.20;99.90;;;;;;5018434;28;20224;-80
2022/06/14 00:55:52;;;;;;;9.87;2.30;;;10.20;99.90;;;;;;5027829;28;22436;-80
2022/06/14 00:58:24;;;;;;;6.90;2.13;;;10.10;99.90;;;;;;5029231;28;20316;-79
2022/06/14 01:00:55;;;;;;;9.73;2.03;;;10.10;99.90;;;;;;5031826;28;20601;-81
2022/06/14 01:03:25;;;;;;;8.10;2.47;;;10.10;99.90;;;;;;5034195;28;20307;-81
2022/06/14 01:06:06;;;;;;;8.60;2.10;;;10.10;99.90;;;;;;5065129;28;20227;-82
2022/06/14 01:08:35;;;;;;;7.87;2.30;;;10.10;99.90;;;;;;5029314;28;20449;-81
2022/06/14 01:11:05;;;;;;;9.00;2.00;;;10.10;99.90;;;;;;5044199;28;20298;-80
2022/06/14 01:13:33;;;;;;;10.67;2.50;;;10.10;99.90;;;;;;5031648;28;20287;-80
2022/06/14 01:15:59;;;;;;;7.90;1.70;;;10.10;99.90;;;;;;5039403;28;20217;-80
2022/06/14 01:18:28;;;;;;;5.77;2.10;;;10.10;99.90;;;;;;5028190;28;20230;-80
2022/06/14 01:20:55;;;;;;;7.47;1.93;;;10.20;99.90;;;;;;5033224;28;20282;-80
2022/06/14 01:23:23;;;;;;;9.37;2.20;;;10.20;99.90;;;;;;5022796;28;20248;-81
2022/06/14 01:26:02;;;;;;;8.40;2.20;;;10.20;99.90;;;;;;5031333;28;20337;-81
2022/06/14 01:28:29;;;;;;;8.37;1.83;;;10.30;99.90;;;;;;5032135;28;20255;-81
2022/06/14 01:30:57;;;;;;;8.50;2.20;;;10.30;99.90;;;;;;5032131;28;20228;-82
2022/06/14 01:33:28;;;;;;;7.80;1.87;;;10.40;99.90;;;;;;5029360;28;20250;-82
2022/06/14 01:36:00;;;;;;;6.47;2.00;;;10.40;99.90;;;;;;5046301;28;20229;-82
2022/06/14 01:38:29;;;;;;;9.73;2.20;;;10.40;99.90;;;;;;5067534;28;20296;-82
2022/06/14 01:41:04;;;;;;;6.20;1.90;;;10.40;99.90;;;;;;5036660;28;20224;-82
2022/06/14 01:43:48;;;;;;;6.03;1.93;;;10.40;99.90;;;;;;5049560;28;20317;-82
2022/06/14 01:46:23;;;;;;;5.27;1.90;;;10.50;99.90;;;;;;5026909;28;20233;-82
2022/06/14 01:51:50;;;;;;;7.47;1.77;;;10.50;99.90;;;;;;5046839;28;20719;-81
2022/06/14 01:51:56;;;;;;;7.17;2.33;;;10.50;99.90;;;;;;5029197;28;20230;-80
2022/06/14 01:54:31;;;;;;;9.73;1.77;;;10.50;99.90;;;;;;5053904;28;20601;-81
2022/06/14 01:57:08;;;;;;;8.40;2.10;;;10.50;99.90;;;;;;5028108;28;20318;-81
2022/06/14 01:59:47;;;;;;;6.90;2.13;;;10.50;99.90;;;;;;5031513;28;20232;-81
2022/06/14 02:02:26;;;;;;;8.20;2.03;;;10.50;99.90;;;;;;5029684;28;20225;-81
2022/06/14 02:05:00;;;;;;;9.03;1.93;;;10.50;99.90;;;;;;5026882;28;20250;-81
2022/06/14 02:07:35;;;;;;;10.83;2.03;;;10.50;99.90;;;;;;5022751;28;20305;-81
2022/06/14 02:10:08;;;;;;;8.63;2.10;;;10.50;99.90;;;;;;5027110;28;20247;-80
2022/06/14 02:12:44;;;;;;;6.87;2.17;;;10.50;99.90;;;;;;5029586;28;20806;-81
2022/06/14 02:15:22;;;;;;;6.80;2.40;;;10.50;99.90;;;;;;5024590;28;20246;-81
2022/06/14 02:17:57;;;;;;;9.40;2.07;;;10.50;99.90;;;;;;5046225;28;20673;-80
2022/06/14 02:20:30;;;;;;;7.20;1.93;;;10.50;99.90;;;;;;5025859;28;20228;-81
2022/06/14 02:23:02;;;;;;;8.77;2.53;;;10.60;99.90;;;;;;5022876;28;20668;-82
2022/06/14 02:25:35;;;;;;;8.10;2.13;;;10.60;99.90;;;;;;5022457;28;20222;-82
2022/06/14 02:28:07;;;;;;;9.53;1.90;;;10.60;99.90;;;;;;5026694;28;20230;-82
2022/06/14 02:30:39;;;;;;;5.13;1.90;;;10.60;99.90;;;;;;5027901;28;20222;-82
2022/06/14 02:33:11;;;;;;;10.63;2.10;;;10.60;99.90;;;;;;5026686;28;20318;-81
2022/06/14 02:35:42;;;;;;;6.23;1.73;;;10.60;99.90;;;;;;5038311;28;20271;-82
2022/06/14 02:38:15;;;;;;;6.57;2.07;;;10.60;99.90;;;;;;5024371;28;20300;-82
2022/06/14 02:40:47;;;;;;;6.10;1.83;;;10.60;99.90;;;;;;5029424;28;20235;-81
2022/06/14 02:43:20;;;;;;;10.57;2.57;;;10.60;99.90;;;;;;5029023;28;20327;-82
2022/06/14 02:45:51;;;;;;;6.80;2.00;;;10.50;99.90;;;;;;5027797;28;20224;-80
2022/06/14 02:48:22;;;;;;;6.77;2.00;;;10.50;99.90;;;;;;5028929;28;20312;-80
2022/06/14 02:50:53;;;;;;;10.47;2.20;;;10.50;99.90;;;;;;5028073;28;20232;-80
2022/06/14 02:53:23;;;;;;;6.60;2.33;;;10.50;99.90;;;;;;5028237;28;20216;-81
2022/06/14 02:55:55;;;;;;;10.20;2.50;;;10.40;99.90;;;;;;5025902;28;20275;-81
2022/06/14 02:58:26;;;;;;;7.43;2.00;;;10.40;99.90;;;;;;5024257;28;20338;-82
2022/06/14 03:00:57;;;;;;;6.33;1.80;;;10.40;99.90;;;;;;5018088;28;20222;-81
2022/06/14 03:03:30;;;;;;;9.20;2.10;;;10.30;99.90;;;;;;5068047;28;20284;-82
2022/06/14 03:06:05;;;;;;;7.17;2.20;;;10.30;99.90;;;;;;5042444;28;20287;-81
2022/06/14 03:08:37;;;;;;;8.20;2.10;;;10.30;99.90;;;;;;5033955;28;20243;-82
2022/06/14 03:11:13;;;;;;;8.17;2.30;;;10.30;99.90;;;;;;5023602;28;20235;-81
2022/06/14 03:13:50;;;;;;;7.57;1.73;;;10.30;99.90;;;;;;5028934;28;20227;-81
2022/06/14 03:16:27;;;;;;;6.97;2.10;;;10.30;99.90;;;;;;5047371;28;20593;-81
2022/06/14 03:19:00;;;;;;;6.50;1.97;;;10.30;99.90;;;;;;5033168;28;20228;-80
2022/06/14 03:21:34;;;;;;;6.53;2.00;;;10.30;99.90;;;;;;5018570;28;20261;-81
2022/06/14 03:24:06;;;;;;;8.00;1.97;;;10.30;99.90;;;;;;5036697;28;20233;-81
2022/06/14 03:26:40;;;;;;;10.43;1.80;;;10.30;99.90;;;;;;5041573;28;20293;-81
2022/06/14 03:29:12;;;;;;;8.90;2.47;;;10.30;99.90;;;;;;5021605;28;20847;-81
2022/06/14 03:31:45;;;;;;;5.73;2.03;;;10.40;99.90;;;;;;5022455;28;20315;-81
2022/06/14 03:34:20;;;;;;;6.83;2.20;;;10.40;99.90;;;;;;5027496;28;20230;-81
2022/06/14 03:36:47;;;;;;;9.50;2.00;;;10.40;99.90;;;;;;5024247;28;20664;-81
2022/06/14 03:39:18;;;;;;;6.27;2.07;;;10.50;99.90;;;;;;5022189;28;20241;-82
2022/06/14 03:41:50;;;;;;;6.23;2.10;;;10.50;99.90;;;;;;5026749;28;20258;-81
2022/06/14 03:44:18;;;;;;;7.23;1.73;;;10.60;99.90;;;;;;5027520;28;20251;-81
2022/06/14 03:46:51;;;;;;;6.50;1.80;;;10.60;99.90;;;;;;5022392;28;20233;-81
2022/06/14 03:49:21;;;;;;;4.73;1.63;;;10.70;99.90;;;;;;5019157;28;20308;-81
2022/06/14 03:51:59;;;;;;;5.60;1.70;;;10.80;99.90;;;;;;5024376;28;20309;-83
2022/06/14 03:54:44;;;;;;;8.03;2.13;;;10.80;99.90;;;;;;5043416;28;20593;-82
2022/06/14 03:57:25;;;;;;;10.33;2.57;;;10.90;99.90;;;;;;5028762;28;20250;-81
2022/06/14 04:00:07;;;;;;;7.83;1.83;;;10.90;99.90;;;;;;5041218;28;20231;-82
2022/06/14 04:02:58;;;;;;;7.07;2.20;;;11.00;99.90;;;;;;5029968;28;20370;-82
2022/06/14 04:05:55;;;;;;;9.20;2.00;;;11.10;99.90;;;;;;5039687;28;20225;-82
2022/06/14 04:08:35;;;;;;;4.33;1.80;;;11.10;99.90;;;;;;5039773;28;20219;-81
2022/06/14 04:11:15;;;;;;;5.00;1.70;;;11.20;99.90;;;;;;5024686;28;20226;-82
2022/06/14 04:13:48;;;;;;;7.37;1.77;;;11.20;99.90;;;;;;5041652;28;20711;-81
2022/06/14 04:16:23;;;;;;;8.37;1.97;;;11.30;99.90;;;;;;5026346;28;20282;-81
2022/06/14 04:18:59;;;;;;;5.80;1.90;;;11.30;99.90;;;;;;5022382;28;20559;-82
2022/06/14 04:21:38;;;;;;;6.67;2.00;;;11.40;99.90;;;;;;5030563;28;20309;-82
2022/06/14 04:24:15;;;;;;;8.07;2.03;;;11.50;99.90;;;;;;5043395;28;20954;-81
2022/06/14 04:26:47;;;;;;;4.93;2.07;;;11.50;99.90;;;;;;5029091;28;21030;-81
2022/06/14 04:29:22;;;;;;;7.73;1.53;;;11.60;99.90;;;;;;5022266;28;20232;-82
2022/06/14 04:31:52;;;;;;;9.47;2.20;;;11.60;99.90;;;;;;5037538;28;20228;-82
2022/06/14 04:34:24;;;;;;;6.57;2.00;;;11.60;99.90;;;;;;5027970;28;20724;-81
2022/06/14 04:36:56;;;;;;;5.93;2.20;;;11.60;99.90;;;;;;5029032;28;20733;-82
2022/06/14 04:39:28;;;;;;;6.77;1.70;;;11.70;99.90;;;;;;5025127;28;20235;-82
2022/06/14 04:41:59;;;;;;;7.03;1.93;;;11.70;99.90;;;;;;5027197;28;20321;-82
2022/06/14 04:44:32;;;;;;;6.67;2.30;;;11.70;99.90;;;;;;5048746;28;20897;-81
2022/06/14 04:47:05;;;;;;;6.90;2.37;;;11.70;99.90;;;;;;5058544;28;20256;-81
2022/06/14 04:49:35;;;;;;;6.93;2.00;;;11.60;99.90;;;;;;5055156;28;20661;-82
2022/06/14 04:52:14;;;;;;;7.90;2.10;;;11.60;99.90;;;;;;5024396;28;20232;-82
2022/06/14 04:54:47;;;;;;;8.50;2.10;;;11.60;99.90;;;;;;5025538;28;20302;-82
2022/06/14 04:57:20;;;;;;;6.87;2.33;;;11.70;99.90;;;;;;5028899;28;20232;-82
2022/06/14 04:59:52;;;;;;;5.33;1.73;;;11.70;99.90;;;;;;5030711;28;20295;-82
2022/06/14 05:02:22;;;;;;;7.77;2.53;;;11.80;99.90;;;;;;5053007;28;20231;-81
2022/06/14 05:04:54;;;;;;;9.93;2.40;;;11.80;99.90;;;;;;5019797;28;20231;-81
2022/06/14 05:07:26;;;;;;;7.60;2.10;;;11.90;99.90;;;;;;5029354;28;20295;-82
2022/06/14 05:09:58;;;;;;;7.43;1.83;;;12.00;99.90;;;;;;5028513;28;20232;-83
2022/06/14 05:12:31;;;;;;;8.13;2.03;;;12.10;99.90;;;;;;5034107;28;20311;-83
2022/06/14 05:15:08;;;;;;;9.13;2.00;;;12.20;99.90;;;;;;5028441;28;20225;-83
2022/06/14 05:17:40;;;;;;;4.97;2.13;;;12.40;99.90;;;;;;5028406;28;20235;-82
2022/06/14 05:20:13;;;;;;;8.27;2.20;;;12.40;99.90;;;;;;5027859;28;20225;-83
2022/06/14 05:22:46;;;;;;;6.07;1.93;;;12.50;99.90;;;;;;5044764;28;20256;-83
2022/06/14 05:25:15;;;;;;;8.27;2.20;;;12.60;99.80;;;;;;5041976;28;20317;-82
2022/06/14 05:27:50;;;;;;;8.47;2.53;;;12.70;99.90;;;;;;5027075;28;20781;-82
2022/06/14 05:30:31;;;;;;;8.40;2.50;;;12.70;99.90;;;;;;5024943;28;20226;-81
2022/06/14 05:33:07;;;;;;;10.47;2.10;;;12.80;99.80;;;;;;5024459;28;20680;-82
2022/06/14 05:35:38;;;;;;;5.90;1.77;;;13.00;99.80;;;;;;5025443;28;20897;-81
2022/06/14 05:38:16;;;;;;;7.53;2.10;;;13.10;99.70;;;;;;5031000;28;20652;-81
2022/06/14 05:40:50;;;;;;;9.27;2.23;;;13.20;99.40;;;;;;5027433;28;20218;-81
2022/06/14 05:43:24;;;;;;;5.47;1.93;;;13.30;99.30;;;;;;5057293;28;20292;-81
2022/06/14 05:45:57;;;;;;;7.90;2.13;;;13.40;99.20;;;;;;5027458;28;20224;-81
2022/06/14 05:48:33;;;;;;;7.10;2.20;;;13.50;99.00;;;;;;5017491;28;20334;-81
2022/06/14 05:51:02;;;;;;;6.47;1.97;;;13.60;99.00;;;;;;5025337;28;20228;-82
2022/06/14 05:53:40;;;;;;;11.53;2.50;;;13.60;99.00;;;;;;5026482;28;20695;-82
2022/06/14 05:56:14;;;;;;;8.20;2.00;;;13.70;99.00;;;;;;5026829;28;20288;-82
2022/06/14 05:58:46;;;;;;;8.27;2.43;;;13.80;98.90;;;;;;5029986;28;20816;-82
2022/06/14 06:01:19;;;;;;;7.20;2.07;;;13.90;98.70;;;;;;5025391;28;20226;-81
2022/06/14 06:03:50;;;;;;;7.50;2.40;;;13.90;98.50;;;;;;5022145;28;20295;-81
2022/06/14 06:06:20;;;;;;;8.43;2.17;;;14.00;98.40;;;;;;5043298;28;20623;-82
2022/06/14 06:08:51;;;;;;;9.57;2.07;;;14.00;98.30;;;;;;5029984;28;20557;-82
2022/06/14 06:11:21;;;;;;;7.67;2.43;;;14.00;98.20;;;;;;5023425;28;20218;-82
2022/06/14 06:13:56;;;;;;;8.27;2.87;;;14.00;98.20;;;;;;5025802;28;20344;-83
2022/06/14 06:16:32;;;;;;;6.63;1.97;;;14.00;98.20;;;;;;5025613;28;20310;-82
2022/06/14 06:19:03;;;;;;;6.97;2.13;;;14.00;98.00;;;;;;5026003;28;20313;-82
2022/06/14 06:21:36;;;;;;;6.60;1.80;;;13.90;98.00;;;;;;5015599;28;20228;-82
2022/06/14 06:24:08;;;;;;;8.73;2.00;;;13.90;98.10;;;;;;5023918;28;20242;-83
2022/06/14 06:26:39;;;;;;;8.93;2.03;;;13.80;98.20;;;;;;5026836;28;20302;-82
2022/06/14 06:29:11;;;;;;;14.10;2.60;;;13.80;98.30;;;;;;5025476;28;20235;-81
2022/06/14 06:31:41;;;;;;;8.57;1.97;;;13.80;98.40;;;;;;5025124;28;20232;-81
2022/06/14 06:34:11;;;;;;;7.87;2.10;;;13.80;98.40;;;;;;5025415;28;20259;-81
2022/06/14 06:36:50;;;;;;;9.73;2.40;;;13.80;98.40;;;;;;5026877;28;20257;-81
2022/06/14 06:39:33;;;;;;;8.00;2.17;;;13.70;98.50;;;;;;5022439;28;20229;-81
2022/06/14 06:42:05;;;;;;;10.13;2.70;;;13.80;98.70;;;;;;5024930;28;20555;-82
2022/06/14 06:44:51;;;;;;;7.83;2.23;;;13.90;98.70;;;;;;5031521;28;20217;-82
2022/06/14 06:47:24;;;;;;;7.70;2.40;;;14.10;98.70;;;;;;5019408;28;20249;-81
2022/06/14 06:50:02;;;;;;;8.70;2.17;;;14.30;98.40;;;;;;5049118;28;20235;-82
2022/06/14 06:52:36;;;;;;;8.47;2.10;;;14.50;98.20;;;;;;5023606;28;20221;-79
2022/06/14 06:55:10;;;;;;;8.83;2.43;;;14.70;98.20;;;;;;5025315;28;20351;-79
2022/06/14 06:57:41;;;;;;;7.07;2.13;;;15.00;98.30;;;;;;5020170;28;20246;-80
2022/06/14 07:00:11;;;;;;;7.00;2.20;;;15.20;98.00;;;;;;5017074;28;20270;-80
2022/06/14 07:02:44;;;;;;;9.40;2.40;;;15.60;97.80;;;;;;5023597;28;20318;-80
2022/06/14 07:05:14;;;;;;;5.67;2.20;;;16.00;97.40;;;;;;5020507;28;20228;-80
2022/06/14 07:07:50;;;;;;;7.10;2.47;;;16.40;97.10;;;;;;5022098;28;20228;-80
2022/06/14 07:10:29;;;;;;;5.07;1.90;;;16.80;96.40;;;;;;5023237;28;20292;-80
2022/06/14 07:12:59;;;;;;;4.67;1.97;;;17.30;95.50;;;;;;5024763;28;20638;-80
2022/06/14 07:15:32;;;;;;;5.43;1.98;;;17.70;95.00;;;;;;5025118;28;20357;-80
2022/06/14 07:18:06;;;;;;;6.05;1.83;;;18.10;94.30;;;;;;5022869;28;20225;-80
2022/06/14 07:20:38;;;;;;;9.93;2.15;;;18.30;93.60;;;;;;5061087;28;20224;-79
2022/06/14 07:23:15;;;;;;;6.45;1.83;;;18.50;93.40;;;;;;5021838;28;20287;-80
2022/06/14 07:25:52;;;;;;;7.40;2.15;;;18.50;92.40;;;;;;5022082;28;20646;-80
2022/06/14 07:28:24;;;;;;;5.60;1.60;;;18.40;92.00;;;;;;5028189;28;20308;-80
2022/06/14 07:30:56;;;;;;;7.43;2.10;;;18.30;91.70;;;;;;5031159;28;20323;-80
2022/06/14 07:33:27;;;;;;;5.25;2.13;;;18.20;92.20;;;;;;5025342;28;20316;-80
2022/06/14 07:35:56;;;;;;;6.88;2.10;;;18.10;92.10;;;;;;5026344;28;20220;-80
2022/06/14 07:38:32;;;;;;;6.32;1.73;;;18.10;92.10;;;;;;5027338;28;20323;-80
2022/06/14 07:41:04;;;;;;;6.43;2.00;;;18.10;91.70;;;;;;5025797;28;20322;-80
2022/06/14 07:43:40;;;;;;;10.07;2.20;;;18.10;92.00;;;;;;5030525;28;20320;-80
2022/06/14 07:46:11;;;;;;;9.40;2.00;;;18.10;91.70;;;;;;5021208;28;20228;-81
2022/06/14 07:48:46;;;;;;;6.30;2.17;;;18.10;91.80;;;;;;5039803;28;20639;-80
2022/06/14 07:51:21;;;;;;;6.63;1.73;;;18.20;91.40;;;;;;5008233;28;20231;-80
2022/06/14 07:53:58;;;;;;;7.43;2.57;;;18.30;91.60;;;;;;5039127;28;20958;-80
2022/06/14 07:56:30;;;;;;;6.47;1.60;;;18.60;91.00;;;;;;5026238;28;20234;-82
2022/06/14 07:59:03;;;;;;;6.57;1.47;;;18.80;91.10;;;;;;5030779;28;20232;-80
2022/06/14 08:01:35;;;;;;;8.30;1.80;;;19.00;89.80;;;;;;5038403;28;20236;-81
2022/06/14 08:04:10;;;;;;;7.33;1.73;;;19.10;88.90;;;;;;5041189;28;20239;-81
2022/06/14 08:06:44;;;;;;;6.70;1.85;;;19.10;88.10;;;;;;5017575;28;20225;-79
2022/06/14 08:09:16;;;;;;;5.43;1.80;;;19.10;87.60;;;;;;5044699;28;20277;-81
2022/06/14 08:11:49;;;;;;;5.28;1.90;;;19.20;88.40;;;;;;5029577;28;20224;-81
2022/06/14 08:14:22;;;;;;;6.53;2.25;;;19.10;88.00;;;;;;5058806;28;20308;-78
2022/06/14 08:16:52;;;;;;;6.85;2.05;;;19.00;87.10;;;;;;5029609;28;20336;-81
2022/06/14 08:19:25;;;;;;;4.87;1.70;;;19.00;87.40;;;;;;5027362;28;20319;-81
2022/06/14 08:21:57;;;;;;;7.30;1.92;;;18.90;86.60;;;;;;5033875;28;20983;-81
2022/06/14 08:24:30;;;;;;;4.13;1.70;;;18.80;85.90;;;;;;5009258;28;20268;-81
2022/06/14 08:27:03;;;;;;;6.40;1.60;;;18.70;87.00;;;;;;5009777;28;20570;-81
2022/06/14 08:29:34;;;;;;;6.75;1.48;;;18.50;87.50;;;;;;5008551;28;20305;-82
2022/06/14 08:32:08;;;;;;;5.53;1.60;;;18.40;87.40;;;;;;5006816;28;20221;-82
2022/06/14 08:34:45;;;;;;;6.87;1.90;;;18.20;87.00;;;;;;5010063;28;20263;-81
2022/06/14 08:37:17;;;;;;;3.93;1.53;;;18.10;87.10;;;;;;5007224;28;20312;-80
2022/06/14 08:39:50;;;;;;;5.30;2.03;;;18.00;87.10;;;;;;5007722;28;20244;-80
2022/06/14 08:42:29;;;;;;;5.22;1.80;;;18.00;87.90;;;;;;5006078;28;20694;-80
2022/06/14 08:45:00;;;;;;;3.83;1.23;;;17.90;88.20;;;;;;5004444;28;21006;-81
2022/06/14 08:47:52;;;;;;;4.47;1.70;;;17.90;88.00;;;;;;4989652;28;20753;-80
2022/06/14 08:50:39;;;;;;;5.70;1.77;;;18.00;87.90;;;;;;5009256;28;20226;-80
2022/06/14 08:53:34;;;;;;;4.43;1.63;;;18.10;87.50;;;;;;5016179;28;20244;-80
2022/06/14 08:56:12;;;;;;;4.03;1.40;;;18.20;87.10;;;;;;5005768;28;20312;-80
2022/06/14 08:58:57;;;;;;;5.07;1.40;;;18.30;86.30;;;;;;5009267;28;20705;-80
2022/06/14 09:01:37;;;;;;;5.07;1.42;;;18.40;85.00;;;;;;5007326;28;20221;-80
2022/06/14 09:04:39;;;;;;;4.47;1.38;;;18.30;84.80;;;;;;5009731;28;20294;-80
2022/06/14 09:07:41;;;;;;;4.63;1.70;;;18.20;84.80;;;;;;5021912;28;20239;-80
2022/06/14 09:10:21;;;;;;;8.40;1.83;;;18.00;84.40;;;;;;5007819;28;20280;-80
2022/06/14 09:13:16;;;;;;;4.38;1.52;;;17.90;84.00;;;;;;4996204;28;20600;-80
2022/06/14 09:15:58;;;;;;;3.40;1.38;;;17.70;84.10;;;;;;5001548;28;20285;-81
2022/06/14 09:19:01;;;;;;;5.00;1.93;;;17.70;85.00;;;;;;5019850;28;20315;-81
2022/06/14 09:21:38;;;;;;;4.85;1.55;;;17.70;85.20;;;;;;5017073;28;20275;-80
2022/06/14 09:24:20;;;;;;;5.28;1.60;;;17.80;86.10;;;;;;5004164;28;20801;-80
2022/06/14 09:27:00;;;;;;;5.85;1.70;;;18.10;86.70;;;;;;5007331;28;20229;-80
2022/06/14 09:29:59;;;;;;;7.22;1.45;;;18.50;86.10;;;;;;4998656;28;20317;-80
2022/06/14 09:33:10;;;;;;;6.53;1.70;;;19.20;87.20;;;;;;5005992;28;20325;-80
2022/06/14 09:36:22;;;;;;;5.65;1.73;;;20.10;85.30;;;;;;5006233;28;20233;-80
2022/06/14 09:39:08;;;;;;;6.70;1.90;;;20.70;82.50;;;;;;5008542;28;20577;-80
2022/06/14 09:42:08;;;;;;;3.75;1.50;;;21.20;80.90;;;;;;5015949;28;20633;-80
2022/06/14 09:45:15;;;;;;;5.07;1.80;;;21.40;80.10;;;;;;4967334;28;20328;-80
2022/06/14 09:48:06;;;;;;;4.53;1.40;;;21.60;80.20;;;;;;5002679;28;20321;-79
2022/06/14 09:50:59;;;;;;;4.32;1.40;;;21.70;77.90;;;;;;5005828;28;20225;-79
2022/06/14 09:53:56;;;;;;;3.35;1.15;;;21.70;75.90;;;;;;5000878;28;20233;-81
2022/06/14 09:56:48;;;;;;;4.88;1.20;;;21.60;74.10;;;;;;4994164;28;20240;-79
2022/06/14 09:59:41;;;;;;;4.22;1.35;;;21.40;75.40;;;;;;5003448;28;20240;-80
2022/06/14 10:02:17;;;;;;;2.92;1.40;;;21.40;74.50;;;;;;5001186;28;20622;-80
2022/06/14 10:05:06;;;;;;;9.68;1.80;;;21.20;75.20;;;;;;5002497;28;20236;-79
2022/06/14 10:08:05;;;;;;;4.82;1.50;;;21.00;75.40;;;;;;5004984;28;20404;-79
2022/06/14 10:11:03;;;;;;;6.75;1.90;;;20.80;75.90;;;;;;5004048;28;20758;-80
2022/06/14 10:13:48;;;;;;;4.15;1.60;;;20.70;76.50;;;;;;5007414;28;20276;-79
2022/06/14 10:16:28;;;;;;;4.20;1.60;;;20.50;77.10;;;;;;5003965;28;20256;-79
2022/06/14 10:19:11;;;;;;;2.65;1.17;;;20.60;76.10;;;;;;5012745;28;20797;-79
2022/06/14 10:21:45;;;;;;;5.55;1.48;;;20.70;76.40;;;;;;5005288;28;20298;-79
2022/06/14 10:24:23;;;;;;;3.63;1.40;;;20.80;75.20;;;;;;5001988;28;20884;-79
2022/06/14 10:30:10;;;;;;;4.22;1.40;;;20.90;74.00;;;;;;5002395;28;20236;-80
2022/06/14 10:33:17;;;;;;;4.20;1.40;;;20.80;74.30;;;;;;5006802;28;20260;-79
2022/06/14 10:35:53;;;;;;;4.38;1.95;;;20.70;74.60;;;;;;5008442;28;20237;-80
2022/06/14 10:38:50;;;;;;;4.55;1.40;;;20.60;74.30;;;;;;5007080;28;20251;-79
2022/06/14 10:41:26;;;;;;;3.75;1.27;;;20.50;74.20;;;;;;5003731;28;20241;-79
2022/06/14 10:43:59;;;;;;;4.30;1.33;;;20.40;73.80;;;;;;5012884;28;20285;-80
2022/06/14 10:46:30;;;;;;;3.75;1.40;;;20.40;73.90;;;;;;5012318;28;20224;-79
2022/06/14 10:49:37;;;;;;;6.90;1.48;;;20.40;75.20;;;;;;5009984;28;20248;-79
2022/06/14 10:52:30;;;;;;;3.58;1.33;;;20.50;74.70;;;;;;4958602;28;20225;-80
2022/06/14 10:55:12;;;;;;;4.30;1.70;;;20.70;75.00;;;;;;5009220;28;20313;-79
2022/06/14 10:57:56;;;;;;;5.53;1.48;;;20.80;75.10;;;;;;4998051;28;20267;-79
2022/06/14 11:00:35;;;;;;;3.80;1.40;;;20.90;74.50;;;;;;5005507;28;20233;-79
2022/06/14 11:03:35;;;;;;;3.88;1.40;;;20.80;73.60;;;;;;5007642;28;20255;-79
2022/06/14 11:06:44;;;;;;;4.88;1.52;;;20.80;73.90;;;;;;5004479;28;20217;-79
2022/06/14 11:09:23;;;;;;;5.07;1.23;;;20.80;73.90;;;;;;4987779;28;20240;-79
2022/06/14 11:12:08;;;;;;;6.55;1.70;;;20.90;73.20;;;;;;4999416;28;20898;-80
2022/06/14 11:14:43;;;;;;;4.03;1.42;;;21.00;73.80;;;;;;4999067;28;20237;-79
2022/06/14 11:17:34;;;;;;;2.22;1.05;;;21.10;72.70;;;;;;5007865;28;20300;-79
2022/06/14 11:20:18;;;;;;;3.00;1.40;;;21.10;72.40;;;;;;5000475;28;20694;-80
2022/06/14 11:22:50;;;;;;;3.22;1.15;;;21.10;72.00;;;;;;5004530;28;20612;-82
2022/06/14 11:25:32;;;;;;;3.72;1.10;;;21.20;72.40;;;;;;5005513;28;20236;-82
2022/06/14 11:28:06;;;;;;;4.22;1.27;;;21.20;72.50;;;;;;5005688;28;20332;-82
2022/06/14 11:30:44;;;;;;;5.88;1.35;;;21.30;72.30;;;;;;5003266;28;20232;-80
2022/06/14 11:33:21;;;;;;;4.70;1.23;;;21.40;71.90;;;;;;4999343;28;20905;-81
2022/06/14 11:36:03;;;;;;;3.33;1.17;;;21.40;71.90;;;;;;5007182;28;20898;-80
2022/06/14 11:38:49;;;;;;;3.05;1.25;;;21.50;71.10;;;;;;5006384;28;20573;-81
2022/06/14 11:41:21;;;;;;;2.47;1.05;;;21.50;70.80;;;;;;5001471;28;20239;-81
2022/06/14 11:44:06;;;;;;;3.15;1.10;;;21.60;70.30;;;;;;5008157;28;20232;-80
2022/06/14 11:46:42;;;;;;;3.70;1.08;;;21.70;70.50;;;;;;5039207;28;20225;-80
2022/06/14 11:49:17;;;;;;;4.50;0.85;;;21.80;70.80;;;;;;5009859;28;20240;-81
2022/06/14 11:51:53;;;;;;;2.10;0.65;;;22.00;69.40;;;;;;5005090;28;20256;-80
2022/06/14 11:54:24;;;;;;;2.35;1.10;;;22.30;68.80;;;;;;5002881;28;20231;-81
2022/06/14 11:57:05;;;;;;;2.45;1.00;;;22.40;68.40;;;;;;5010613;28;20706;-81
2022/06/14 11:59:56;;;;;;;4.70;1.00;;;22.60;67.90;;;;;;5012175;28;20311;-81
2022/06/14 12:02:43;;;;;;;2.85;1.15;;;22.70;68.50;;;;;;5034006;28;21640;-80
2022/06/14 12:05:23;;;;;;;4.47;1.25;;;22.70;67.50;;;;;;5002617;28;20232;-81
2022/06/14 12:08:00;;;;;;;2.17;1.15;;;22.70;66.90;;;;;;5007126;28;20243;-80
2022/06/14 12:10:47;;;;;;;3.53;1.05;;;22.70;67.20;;;;;;5026944;28;20225;-81
2022/06/14 12:13:31;;;;;;;3.25;1.33;;;22.50;67.90;;;;;;5006971;28;20225;-80
2022/06/14 12:16:04;;;;;;;1.98;1.10;;;22.50;67.80;;;;;;5004289;28;20221;-80
2022/06/14 12:18:34;;;;;;;2.17;1.00;;;22.50;67.60;;;;;;5004152;28;20253;-80
2022/06/14 12:21:13;;;;;;;2.92;1.30;;;22.40;67.80;;;;;;5026963;28;20249;-81
2022/06/14 12:23:45;;;;;;;3.30;1.00;;;22.40;67.80;;;;;;5005201;28;20222;-82
2022/06/14 12:26:36;;;;;;;1.70;0.88;;;22.40;68.10;;;;;;5007563;28;20229;-80
2022/06/14 12:29:12;;;;;;;2.55;1.10;;;22.40;67.40;;;;;;5011150;28;20244;-80
2022/06/14 12:31:59;;;;;;;4.47;1.10;;;22.50;67.90;;;;;;5015602;28;20630;-80
2022/06/14 12:34:30;;;;;;;2.17;1.00;;;22.50;67.60;;;;;;5016273;28;20264;-80
2022/06/14 12:37:14;;;;;;;1.95;1.10;;;22.40;67.60;;;;;;5021494;28;20301;-80
2022/06/14 12:39:47;;;;;;;2.13;0.98;;;22.40;67.60;;;;;;5012083;28;20235;-80
2022/06/14 12:42:22;;;;;;;2.42;1.00;;;22.50;67.70;;;;;;4999050;28;20536;-80
2022/06/14 12:44:55;;;;;;;5.55;1.30;;;22.50;67.50;;;;;;5014916;28;20317;-79
2022/06/14 12:47:28;;;;;;;3.95;1.50;;;22.50;67.50;;;;;;5008959;28;20710;-80
2022/06/14 12:50:02;;;;;;;6.60;1.35;;;22.50;67.90;;;;;;5012680;28;20242;-80
2022/06/14 12:52:36;;;;;;;1.23;0.75;;;22.50;66.80;;;;;;5010765;28;21560;-80
2022/06/14 12:55:13;;;;;;;3.88;1.10;;;22.40;66.50;;;;;;5002258;28;20225;-80
2022/06/14 12:57:52;;;;;;;1.92;0.90;;;22.40;66.90;;;;;;5014142;28;20265;-80
2022/06/14 13:00:30;;;;;;;1.35;0.90;;;22.30;66.40;;;;;;5012617;28;20206;-80
2022/06/14 13:03:01;;;;;;;3.78;1.10;;;22.30;66.40;;;;;;5015211;28;20236;-80
2022/06/14 13:05:34;;;;;;;2.67;0.93;;;22.20;66.40;;;;;;5010365;28;20289;-80
2022/06/14 13:08:14;;;;;;;4.35;1.13;;;22.20;66.50;;;;;;5016896;28;20256;-79
2022/06/14 13:10:54;;;;;;;2.22;0.90;;;22.10;66.80;;;;;;5015066;28;20217;-80
2022/06/14 13:13:47;;;;;;;3.08;1.00;;;22.00;66.10;;;;;;5009833;28;20233;-80
2022/06/14 13:16:44;;;;;;;2.72;1.20;;;21.90;66.30;;;;;;5000303;28;20304;-80
2022/06/14 13:19:18;;;;;;;2.13;1.10;;;21.80;67.20;;;;;;5005399;28;20321;-80
2022/06/14 13:22:03;;;;;;;2.85;1.13;;;21.70;67.00;;;;;;5004920;28;20307;-80
2022/06/14 13:24:44;;;;;;;2.80;1.00;;;21.60;67.40;;;;;;5006949;28;20225;-80
2022/06/14 13:27:20;;;;;;;1.20;0.80;;;21.50;67.20;;;;;;5007204;28;20245;-80
2022/06/14 13:29:59;;;;;;;4.97;1.10;;;21.40;67.70;;;;;;5027185;28;20229;-80
2022/06/14 13:32:50;;;;;;;4.15;1.38;;;21.20;67.90;;;;;;5009705;28;20239;-80
2022/06/14 13:35:36;;;;;;;3.80;1.13;;;21.10;68.40;;;;;;5027800;28;20310;-80
2022/06/14 13:38:06;;;;;;;2.50;0.85;;;21.00;68.20;;;;;;5007658;28;20247;-80